Time;durP1;ratioP1;P1;durP2;ratioP2;P2;SDS_P1;SDS_P2;PMS_P1;PMS_P2;Temp;Humidity;BMP_temperature;BMP_pressure;BME280_temperature;BME280_humidity;BME280_pressure;Samples;Min_cycle;Max_cycle;Signal;HPM_P1;HPM_P2
2023/11/12 00:00:15;;;;;;;4.43;2.40;;;5.30;11.80;;;;;;5012820;28;20182;-68
2023/11/12 00:02:40;;;;;;;5.53;3.00;;;5.20;11.70;;;;;;5012644;28;20198;-68
2023/11/12 00:05:11;;;;;;;3.10;1.93;;;5.30;11.80;;;;;;5013111;28;20598;-69
2023/11/12 00:07:37;;;;;;;3.50;2.13;;;5.30;11.60;;;;;;5012290;28;20545;-68
2023/11/12 00:10:03;;;;;;;2.90;1.70;;;5.30;11.80;;;;;;5012513;28;20410;-68
2023/11/12 00:12:29;;;;;;;3.30;2.10;;;5.30;11.80;;;;;;5011490;28;20437;-69
2023/11/12 00:14:55;;;;;;;3.30;1.90;;;5.30;11.80;;;;;;5011710;28;20497;-69
2023/11/12 00:17:21;;;;;;;5.07;2.70;;;5.30;11.80;;;;;;5011838;28;20410;-68
2023/11/12 00:19:47;;;;;;;3.23;2.33;;;5.30;11.90;;;;;;5011533;28;20265;-68
2023/11/12 00:22:13;;;;;;;4.60;2.20;;;5.30;11.90;;;;;;5011216;28;20206;-68
2023/11/12 00:24:39;;;;;;;4.17;2.37;;;5.40;12.50;;;;;;5011494;28;20479;-68
2023/11/12 00:27:04;;;;;;;3.50;1.90;;;5.30;11.90;;;;;;5015038;28;20176;-69
2023/11/12 00:29:31;;;;;;;3.27;2.27;;;5.40;11.90;;;;;;5015399;28;20780;-69
2023/11/12 00:31:57;;;;;;;2.53;1.73;;;5.50;11.90;;;;;;5014904;28;20206;-69
2023/11/12 00:34:23;;;;;;;2.60;1.90;;;5.50;11.90;;;;;;5015251;28;20421;-68
2023/11/12 00:36:49;;;;;;;2.70;1.70;;;5.50;11.90;;;;;;5015372;28;20964;-68
2023/11/12 00:39:15;;;;;;;2.80;1.87;;;5.50;11.90;;;;;;5015107;28;20414;-69
2023/11/12 00:41:41;;;;;;;3.20;1.60;;;5.60;12.60;;;;;;5015034;28;20543;-69
2023/11/12 00:44:10;;;;;;;3.53;2.63;;;5.60;11.90;;;;;;5015449;28;20476;-69
2023/11/12 00:46:40;;;;;;;4.30;2.47;;;5.60;11.40;;;;;;5015109;28;20707;-68
2023/11/12 00:49:06;;;;;;;2.43;1.37;;;5.70;11.70;;;;;;5015040;28;20414;-68
2023/11/12 00:51:33;;;;;;;2.30;1.20;;;5.70;11.00;;;;;;5015347;28;20847;-68
2023/11/12 00:53:58;;;;;;;4.30;1.40;;;5.80;10.70;;;;;;5014761;28;20426;-70
2023/11/12 00:56:24;;;;;;;3.17;1.73;;;5.70;11.20;;;;;;5014864;28;20781;-68
2023/11/12 00:58:49;;;;;;;3.00;1.90;;;5.70;12.10;;;;;;5014812;28;20535;-68
2023/11/12 01:01:15;;;;;;;2.53;1.30;;;5.80;12.70;;;;;;5014709;28;20195;-68
2023/11/12 01:03:41;;;;;;;2.70;1.53;;;5.90;10.90;;;;;;5014573;28;20671;-68
2023/11/12 01:06:06;;;;;;;2.93;1.53;;;6.00;11.10;;;;;;5014917;28;20418;-68
2023/11/12 01:08:32;;;;;;;3.70;1.70;;;5.90;11.50;;;;;;5014902;28;20282;-69
2023/11/12 01:10:58;;;;;;;3.33;2.20;;;6.00;11.00;;;;;;5014479;28;20191;-68
2023/11/12 01:13:24;;;;;;;2.23;1.30;;;6.00;11.00;;;;;;5014184;28;20180;-69
2023/11/12 01:15:50;;;;;;;4.50;1.80;;;6.00;10.80;;;;;;5014484;28;20399;-68
2023/11/12 01:18:16;;;;;;;2.20;1.20;;;6.10;10.10;;;;;;5014514;28;20468;-68
2023/11/12 01:20:42;;;;;;;2.10;1.03;;;6.10;9.00;;;;;;5014209;28;20667;-69
2023/11/12 01:23:07;;;;;;;2.43;1.40;;;6.20;8.00;;;;;;5014088;28;20508;-68
2023/11/12 01:25:33;;;;;;;3.27;1.67;;;6.20;8.00;;;;;;5014200;28;20454;-68
2023/11/12 01:27:59;;;;;;;1.80;0.83;;;6.10;7.70;;;;;;5014188;28;20222;-69
2023/11/12 01:30:25;;;;;;;2.70;1.57;;;6.10;7.80;;;;;;5014395;28;20176;-69
2023/11/12 01:32:52;;;;;;;2.50;1.30;;;6.20;8.00;;;;;;5013691;28;20490;-68
2023/11/12 01:35:19;;;;;;;2.10;1.10;;;6.20;8.00;;;;;;5014125;28;20442;-68
2023/11/12 01:37:45;;;;;;;2.47;1.47;;;6.20;8.00;;;;;;5013203;28;20472;-68
2023/11/12 01:40:15;;;;;;;2.07;1.20;;;6.20;8.00;;;;;;5013778;28;20493;-68
2023/11/12 01:42:44;;;;;;;2.47;1.43;;;6.30;7.60;;;;;;5013741;28;20282;-68
2023/11/12 01:45:09;;;;;;;2.20;1.30;;;6.20;7.90;;;;;;5013900;28;20454;-68
2023/11/12 01:47:40;;;;;;;2.50;1.10;;;6.30;7.70;;;;;;5012509;28;20885;-69
2023/11/12 01:50:09;;;;;;;1.90;0.90;;;6.30;7.40;;;;;;5013831;28;20247;-69
2023/11/12 01:52:36;;;;;;;2.17;1.50;;;6.30;7.20;;;;;;5013470;28;20939;-68
2023/11/12 01:55:06;;;;;;;3.00;1.70;;;6.30;8.30;;;;;;5013803;28;20416;-68
2023/11/12 01:57:33;;;;;;;4.33;1.77;;;6.20;8.00;;;;;;5013731;28;20916;-68
2023/11/12 02:00:10;;;;;;;2.07;1.33;;;6.20;7.50;;;;;;5013642;28;20411;-68
2023/11/12 02:02:37;;;;;;;2.80;1.33;;;6.20;7.30;;;;;;5013397;28;20493;-68
2023/11/12 02:05:07;;;;;;;3.30;1.27;;;6.10;7.20;;;;;;5013384;28;20454;-68
2023/11/12 02:07:35;;;;;;;3.10;2.00;;;6.00;7.10;;;;;;5014212;28;20410;-68
2023/11/12 02:10:09;;;;;;;4.60;1.63;;;5.80;7.70;;;;;;5013720;28;20418;-68
2023/11/12 02:12:37;;;;;;;3.60;1.87;;;5.70;7.90;;;;;;5013131;28;20506;-68
2023/11/12 02:15:04;;;;;;;2.60;1.30;;;5.60;9.20;;;;;;5013348;28;20411;-68
2023/11/12 02:17:31;;;;;;;3.20;1.30;;;5.40;10.20;;;;;;5013337;28;20414;-68
2023/11/12 02:20:10;;;;;;;1.70;0.97;;;5.20;11.70;;;;;;5013207;28;20449;-68
2023/11/12 02:22:36;;;;;;;2.77;1.40;;;5.20;11.70;;;;;;5012975;28;20538;-68
2023/11/12 02:25:03;;;;;;;5.83;1.87;;;5.00;14.30;;;;;;5013083;28;20465;-69
2023/11/12 02:27:28;;;;;;;3.63;1.43;;;4.90;14.80;;;;;;5013183;28;20433;-68
2023/11/12 02:29:54;;;;;;;2.23;1.10;;;4.80;15.40;;;;;;5013171;28;20905;-68
2023/11/12 02:32:19;;;;;;;3.10;1.40;;;4.60;16.30;;;;;;5012537;28;20248;-69
2023/11/12 02:34:45;;;;;;;3.13;1.70;;;4.50;18.30;;;;;;5013006;28;20183;-69
2023/11/12 02:37:13;;;;;;;4.63;2.50;;;4.40;18.60;;;;;;5012925;28;20194;-68
2023/11/12 02:39:41;;;;;;;2.05;1.10;;;4.20;19.60;;;;;;5012904;28;20189;-68
2023/11/12 02:42:10;;;;;;;6.25;2.17;;;4.10;21.50;;;;;;5012726;28;20229;-68
2023/11/12 02:44:37;;;;;;;2.28;1.20;;;3.90;21.50;;;;;;5012896;28;20208;-68
2023/11/12 02:47:04;;;;;;;2.63;1.02;;;3.90;22.50;;;;;;5012741;28;20186;-69
2023/11/12 02:49:42;;;;;;;4.90;1.80;;;3.80;22.60;;;;;;5012683;28;20181;-69
2023/11/12 02:52:08;;;;;;;1.80;1.02;;;3.80;24.00;;;;;;5012411;28;20197;-68
2023/11/12 02:54:35;;;;;;;2.23;1.10;;;3.70;24.50;;;;;;5012630;28;20668;-69
2023/11/12 02:57:02;;;;;;;2.17;1.17;;;3.60;25.70;;;;;;5012546;28;20414;-68
2023/11/12 02:59:28;;;;;;;2.35;1.65;;;3.50;26.30;;;;;;5012368;28;20184;-68
2023/11/12 03:01:54;;;;;;;2.63;1.20;;;3.30;27.30;;;;;;5012127;28;20687;-68
2023/11/12 03:04:20;;;;;;;3.37;1.20;;;3.30;27.30;;;;;;5012403;28;20296;-68
2023/11/12 03:06:47;;;;;;;2.97;1.40;;;3.20;27.20;;;;;;5012557;28;20177;-68
2023/11/12 03:09:13;;;;;;;2.40;1.50;;;3.10;27.60;;;;;;5012344;28;20176;-68
2023/11/12 03:11:39;;;;;;;2.30;1.40;;;3.10;28.30;;;;;;5012187;28;20275;-68
2023/11/12 03:14:06;;;;;;;5.03;1.90;;;3.00;28.60;;;;;;5012265;28;20184;-68
2023/11/12 03:16:32;;;;;;;2.22;1.40;;;2.90;29.40;;;;;;5012299;28;20195;-68
2023/11/12 03:19:00;;;;;;;3.67;1.47;;;2.90;29.90;;;;;;5012439;28;20181;-69
2023/11/12 03:21:26;;;;;;;2.90;1.63;;;2.80;30.00;;;;;;5012477;28;20204;-69
2023/11/12 03:23:51;;;;;;;2.60;1.53;;;2.80;30.80;;;;;;5011999;28;20199;-68
2023/11/12 03:26:17;;;;;;;2.23;1.40;;;2.70;31.00;;;;;;5012090;28;20411;-68
2023/11/12 03:28:42;;;;;;;3.20;1.93;;;2.70;31.10;;;;;;5012049;28;20184;-68
2023/11/12 03:31:08;;;;;;;1.93;1.23;;;2.60;31.50;;;;;;5011985;28;20262;-69
2023/11/12 03:33:35;;;;;;;3.13;1.40;;;2.50;32.50;;;;;;5011797;28;20168;-69
2023/11/12 03:36:01;;;;;;;3.13;1.80;;;2.50;33.20;;;;;;5012060;28;20563;-69
2023/11/12 03:38:27;;;;;;;2.55;1.50;;;2.50;34.40;;;;;;5011917;28;20223;-69
2023/11/12 03:40:52;;;;;;;3.13;1.60;;;2.50;34.70;;;;;;5011807;28;20180;-69
2023/11/12 03:43:18;;;;;;;2.87;1.83;;;2.50;34.40;;;;;;5011525;28;20194;-69
2023/11/12 03:45:43;;;;;;;2.77;1.30;;;2.50;35.10;;;;;;5011672;28;20256;-69
2023/11/12 03:48:10;;;;;;;4.90;1.70;;;2.50;34.10;;;;;;5011759;28;20661;-68
2023/11/12 03:50:36;;;;;;;2.20;1.33;;;2.50;35.00;;;;;;5011920;28;20674;-68
2023/11/12 03:53:02;;;;;;;3.30;2.42;;;2.50;34.60;;;;;;5011390;28;20630;-69
2023/11/12 03:55:27;;;;;;;3.40;1.90;;;2.60;35.60;;;;;;5011684;28;20251;-69
2023/11/12 03:57:53;;;;;;;3.20;2.00;;;2.60;36.10;;;;;;5011626;28;20234;-69
2023/11/12 04:00:18;;;;;;;3.27;1.90;;;2.60;36.10;;;;;;5013848;28;20652;-69
2023/11/12 04:02:44;;;;;;;2.67;2.00;;;2.70;36.20;;;;;;5018188;28;20716;-69
2023/11/12 04:05:10;;;;;;;3.00;1.90;;;2.70;35.20;;;;;;5018441;28;20209;-69
2023/11/12 04:07:36;;;;;;;2.47;1.30;;;2.80;34.40;;;;;;5018275;28;20219;-69
2023/11/12 04:10:05;;;;;;;4.50;2.20;;;2.80;33.30;;;;;;5018090;28;20175;-69
2023/11/12 04:12:31;;;;;;;3.70;2.40;;;2.90;32.70;;;;;;5017863;28;20196;-69
2023/11/12 04:14:57;;;;;;;3.15;1.73;;;2.90;34.10;;;;;;5017987;28;20259;-69
2023/11/12 04:17:22;;;;;;;3.37;2.13;;;3.00;31.90;;;;;;5018022;28;20212;-69
2023/11/12 04:19:48;;;;;;;3.37;2.30;;;3.10;30.60;;;;;;5017934;28;20181;-69
2023/11/12 04:22:13;;;;;;;3.50;2.00;;;3.20;30.60;;;;;;5017682;28;20560;-68
2023/11/12 04:24:39;;;;;;;2.40;1.70;;;3.30;29.50;;;;;;5017858;28;20201;-71
2023/11/12 04:27:06;;;;;;;4.03;2.30;;;3.40;28.60;;;;;;5017886;28;20277;-69
2023/11/12 04:29:32;;;;;;;6.03;2.38;;;3.40;27.40;;;;;;5018020;28;20176;-69
2023/11/12 04:31:57;;;;;;;3.20;2.10;;;3.50;26.80;;;;;;5017494;28;20705;-69
2023/11/12 04:34:23;;;;;;;3.90;2.00;;;3.50;25.70;;;;;;5017851;28;20176;-69
2023/11/12 04:36:48;;;;;;;3.57;1.97;;;3.50;25.20;;;;;;5017940;28;20401;-69
2023/11/12 04:39:14;;;;;;;3.27;1.73;;;3.50;24.60;;;;;;5017782;28;20207;-69
2023/11/12 04:41:39;;;;;;;3.53;2.40;;;3.50;24.40;;;;;;5017517;28;20220;-69
2023/11/12 04:44:05;;;;;;;2.40;1.60;;;3.50;25.10;;;;;;5017596;28;20462;-69
2023/11/12 04:46:31;;;;;;;4.97;2.13;;;3.40;25.20;;;;;;5017959;28;20252;-69
2023/11/12 04:48:56;;;;;;;3.10;2.00;;;3.40;25.70;;;;;;5017949;28;20544;-69
2023/11/12 04:51:22;;;;;;;3.53;2.10;;;3.40;24.60;;;;;;5016438;28;20237;-69
2023/11/12 04:53:48;;;;;;;3.33;2.10;;;3.40;25.00;;;;;;5017610;28;20278;-69
2023/11/12 04:56:14;;;;;;;3.57;1.90;;;3.40;25.10;;;;;;5017700;28;20501;-69
2023/11/12 04:58:39;;;;;;;4.13;2.37;;;3.40;24.80;;;;;;5017715;28;20420;-69
2023/11/12 05:01:06;;;;;;;3.10;2.07;;;3.40;24.80;;;;;;5017603;28;20189;-69
2023/11/12 05:03:32;;;;;;;5.05;2.30;;;3.30;24.70;;;;;;5017452;28;20269;-69
2023/11/12 05:06:01;;;;;;;3.37;2.40;;;3.30;25.30;;;;;;5017627;28;20208;-69
2023/11/12 05:08:27;;;;;;;2.50;1.77;;;3.30;25.30;;;;;;5017498;28;20410;-69
2023/11/12 05:10:52;;;;;;;2.20;1.45;;;3.20;25.10;;;;;;5017334;28;20188;-69
2023/11/12 05:13:18;;;;;;;3.67;2.37;;;3.20;24.90;;;;;;5013257;28;20220;-69
2023/11/12 05:15:44;;;;;;;2.97;1.97;;;3.20;24.90;;;;;;5014589;28;20226;-69
2023/11/12 05:18:10;;;;;;;3.07;1.97;;;3.10;25.00;;;;;;5014470;28;20428;-69
2023/11/12 05:20:35;;;;;;;3.05;2.20;;;3.10;25.20;;;;;;5014268;28;20169;-69
2023/11/12 05:23:02;;;;;;;2.72;1.85;;;3.00;25.80;;;;;;5014133;28;20408;-69
2023/11/12 05:25:28;;;;;;;2.90;1.80;;;3.00;26.20;;;;;;5014192;28;20287;-70
2023/11/12 05:27:54;;;;;;;3.93;2.60;;;3.00;26.40;;;;;;5014162;28;20173;-69
2023/11/12 05:30:20;;;;;;;3.20;2.17;;;2.90;27.00;;;;;;5014075;28;20491;-69
2023/11/12 05:32:55;;;;;;;5.27;2.30;;;2.90;27.00;;;;;;5013650;28;20296;-69
2023/11/12 05:35:20;;;;;;;4.15;2.00;;;2.80;27.00;;;;;;5013968;28;20406;-69
2023/11/12 05:37:49;;;;;;;3.90;2.13;;;2.80;26.90;;;;;;5013959;28;20181;-69
2023/11/12 05:40:14;;;;;;;2.75;2.25;;;2.90;27.00;;;;;;5013977;28;20629;-69
2023/11/12 05:42:40;;;;;;;4.33;2.10;;;2.90;27.00;;;;;;5013565;28;20287;-69
2023/11/12 05:45:06;;;;;;;3.30;1.70;;;2.80;26.90;;;;;;5013832;28;20490;-69
2023/11/12 05:47:32;;;;;;;3.03;2.27;;;2.80;27.50;;;;;;5013915;28;20939;-69
2023/11/12 05:49:58;;;;;;;3.80;1.87;;;2.70;28.30;;;;;;5013833;28;20430;-69
2023/11/12 05:52:23;;;;;;;3.83;2.63;;;2.70;27.80;;;;;;5013394;28;20565;-69
2023/11/12 05:54:49;;;;;;;4.40;2.30;;;2.80;28.90;;;;;;5013670;28;20188;-69
2023/11/12 05:57:14;;;;;;;3.80;2.17;;;2.80;28.00;;;;;;5012428;28;20230;-69
2023/11/12 05:59:40;;;;;;;3.67;2.50;;;2.80;28.90;;;;;;5013626;28;20200;-69
2023/11/12 06:02:05;;;;;;;3.27;2.00;;;2.80;27.70;;;;;;5013265;28;20209;-69
2023/11/12 06:04:31;;;;;;;2.97;1.73;;;2.80;27.00;;;;;;5013397;28;20299;-69
2023/11/12 06:06:56;;;;;;;3.20;2.00;;;2.80;27.40;;;;;;5013469;28;20173;-69
2023/11/12 06:09:22;;;;;;;4.43;2.90;;;2.80;28.20;;;;;;5013376;28;20191;-67
2023/11/12 06:11:48;;;;;;;5.23;2.97;;;2.80;29.50;;;;;;5013165;28;20589;-71
2023/11/12 06:14:13;;;;;;;4.73;2.93;;;2.70;30.00;;;;;;5028923;28;20230;-70
2023/11/12 06:16:39;;;;;;;4.50;3.13;;;2.70;29.90;;;;;;5013567;28;20596;-70
2023/11/12 06:19:05;;;;;;;4.73;2.83;;;2.70;30.80;;;;;;5013482;28;20260;-70
2023/11/12 06:21:30;;;;;;;4.80;3.03;;;2.70;30.40;;;;;;5013246;28;20199;-69
2023/11/12 06:23:56;;;;;;;6.13;2.70;;;2.80;30.00;;;;;;5012831;28;20462;-71
2023/11/12 06:26:22;;;;;;;3.70;2.17;;;2.80;31.00;;;;;;5013270;28;20172;-72
2023/11/12 06:28:48;;;;;;;4.20;2.73;;;2.90;30.00;;;;;;5013082;28;20177;-70
2023/11/12 06:31:15;;;;;;;4.75;2.67;;;2.90;29.10;;;;;;5012788;28;20266;-69
2023/11/12 06:33:43;;;;;;;4.30;2.75;;;2.90;29.80;;;;;;5013039;28;20672;-70
2023/11/12 06:36:09;;;;;;;3.97;2.78;;;3.00;28.50;;;;;;5012947;28;20176;-70
2023/11/12 06:38:35;;;;;;;4.28;3.03;;;3.00;29.20;;;;;;5012963;28;20265;-70
2023/11/12 06:41:00;;;;;;;3.90;2.50;;;3.10;27.60;;;;;;5012857;28;20198;-70
2023/11/12 06:43:26;;;;;;;3.37;2.10;;;3.00;28.60;;;;;;5012637;28;20180;-70
2023/11/12 06:45:52;;;;;;;5.57;2.77;;;3.10;27.90;;;;;;5012664;28;20207;-70
2023/11/12 06:48:18;;;;;;;4.25;2.50;;;3.00;27.70;;;;;;5012797;28;20204;-69
2023/11/12 06:50:44;;;;;;;5.40;2.30;;;3.00;29.10;;;;;;5012492;28;20194;-70
2023/11/12 06:53:10;;;;;;;4.90;2.70;;;3.10;28.10;;;;;;5012407;28;20228;-70
2023/11/12 06:55:36;;;;;;;3.88;2.63;;;3.10;27.20;;;;;;5012385;28;20185;-69
2023/11/12 06:58:01;;;;;;;6.17;2.90;;;3.20;27.20;;;;;;5012380;28;20181;-70
2023/11/12 07:00:27;;;;;;;3.50;2.67;;;3.20;27.20;;;;;;5012336;28;20184;-70
2023/11/12 07:02:54;;;;;;;4.70;3.20;;;3.30;27.20;;;;;;5012202;28;20556;-70
2023/11/12 07:05:20;;;;;;;5.25;3.33;;;3.30;26.90;;;;;;5012289;28;20252;-70
2023/11/12 07:07:45;;;;;;;4.73;3.13;;;3.30;26.10;;;;;;5011096;28;20655;-70
2023/11/12 07:10:12;;;;;;;5.30;3.07;;;3.40;27.30;;;;;;5014099;28;20552;-70
2023/11/12 07:12:38;;;;;;;4.55;2.97;;;3.40;27.00;;;;;;5011794;28;20567;-70
2023/11/12 07:15:04;;;;;;;3.50;2.57;;;3.50;26.50;;;;;;5012116;28;20176;-70
2023/11/12 07:17:31;;;;;;;4.80;2.85;;;3.60;26.40;;;;;;5012069;28;20499;-70
2023/11/12 07:19:56;;;;;;;5.63;3.80;;;3.50;26.40;;;;;;5011694;28;20172;-70
2023/11/12 07:22:22;;;;;;;4.87;2.90;;;3.60;26.60;;;;;;5007650;28;20213;-70
2023/11/12 07:24:48;;;;;;;4.50;2.95;;;3.60;26.20;;;;;;5011847;28;20260;-70
2023/11/12 07:27:13;;;;;;;5.50;3.03;;;3.70;26.60;;;;;;5013238;28;20194;-70
2023/11/12 07:29:39;;;;;;;3.07;2.27;;;3.80;26.30;;;;;;5011868;28;20226;-70
2023/11/12 07:32:05;;;;;;;4.00;3.30;;;3.80;25.70;;;;;;5011627;28;20756;-70
2023/11/12 07:34:30;;;;;;;4.27;2.77;;;4.00;23.70;;;;;;5011568;28;20269;-69
2023/11/12 07:36:56;;;;;;;5.83;3.63;;;4.00;23.70;;;;;;5011695;28;20186;-69
2023/11/12 07:39:22;;;;;;;4.10;3.50;;;4.10;22.90;;;;;;5010683;28;20192;-69
2023/11/12 07:41:47;;;;;;;4.57;3.87;;;4.10;22.60;;;;;;5011524;28;20193;-69
2023/11/12 07:44:13;;;;;;;4.80;3.20;;;4.20;22.50;;;;;;5011853;28;20201;-69
2023/11/12 07:46:41;;;;;;;5.97;3.40;;;4.20;22.90;;;;;;5011839;28;20174;-69
2023/11/12 07:49:07;;;;;;;6.30;3.42;;;4.30;22.80;;;;;;5011270;28;20198;-69
2023/11/12 07:51:34;;;;;;;5.43;4.15;;;4.40;22.20;;;;;;5011697;28;20198;-69
2023/11/12 07:54:00;;;;;;;4.40;3.20;;;4.40;21.10;;;;;;5011557;28;20207;-69
2023/11/12 07:56:26;;;;;;;5.00;3.90;;;4.50;21.20;;;;;;5011841;28;20182;-68
2023/11/12 07:58:53;;;;;;;4.50;2.97;;;4.60;20.40;;;;;;5011718;28;20227;-69
2023/11/12 08:01:19;;;;;;;4.15;3.38;;;4.60;19.90;;;;;;5011740;28;20309;-70
2023/11/12 08:03:44;;;;;;;6.83;3.70;;;4.70;19.90;;;;;;5009995;28;20274;-69
2023/11/12 08:06:11;;;;;;;6.67;3.50;;;4.80;19.20;;;;;;5011917;28;20183;-69
2023/11/12 08:08:37;;;;;;;5.05;3.50;;;4.90;18.20;;;;;;5011520;28;20177;-69
2023/11/12 08:11:03;;;;;;;8.07;3.83;;;5.00;17.70;;;;;;5011868;28;20208;-69
2023/11/12 08:13:29;;;;;;;4.97;4.23;;;5.00;18.00;;;;;;5011491;28;20236;-69
2023/11/12 08:15:54;;;;;;;5.57;3.60;;;5.00;19.00;;;;;;5011490;28;20416;-68
2023/11/12 08:18:20;;;;;;;5.57;3.73;;;5.10;18.90;;;;;;4992067;28;20207;-68
2023/11/12 08:20:46;;;;;;;5.03;4.10;;;5.20;18.40;;;;;;4991995;28;20265;-70
2023/11/12 08:23:11;;;;;;;6.33;4.87;;;5.40;17.90;;;;;;4991723;28;20198;-70
2023/11/12 08:25:37;;;;;;;5.37;4.00;;;5.50;18.00;;;;;;4992162;28;20246;-71
2023/11/12 08:28:03;;;;;;;4.70;3.77;;;5.70;17.50;;;;;;4991910;28;20672;-71
2023/11/12 08:30:29;;;;;;;5.80;3.17;;;5.80;16.40;;;;;;4991759;28;20176;-71
2023/11/12 08:32:55;;;;;;;7.77;3.67;;;6.00;15.90;;;;;;4991475;28;20462;-71
2023/11/12 08:35:20;;;;;;;7.23;3.27;;;6.10;14.60;;;;;;4991943;28;20212;-70
2023/11/12 08:37:47;;;;;;;4.30;2.90;;;6.10;9.90;;;;;;4991966;28;20188;-70
2023/11/12 08:40:12;;;;;;;5.80;3.40;;;6.20;11.30;;;;;;4991841;28;20177;-70
2023/11/12 08:42:38;;;;;;;5.50;3.63;;;6.30;10.80;;;;;;4991507;28;20969;-70
2023/11/12 08:45:04;;;;;;;6.67;3.73;;;6.30;9.70;;;;;;4992106;28;20306;-71
2023/11/12 08:47:31;;;;;;;3.90;3.47;;;6.40;9.00;;;;;;4994773;28;20181;-71
2023/11/12 08:49:56;;;;;;;5.20;3.20;;;6.50;8.70;;;;;;4995977;28;20790;-71
2023/11/12 08:52:22;;;;;;;6.03;4.03;;;6.50;8.20;;;;;;4995767;28;20436;-71
2023/11/12 08:54:49;;;;;;;6.37;4.00;;;6.60;7.00;;;;;;4995681;28;20264;-71
2023/11/12 08:57:14;;;;;;;4.67;3.40;;;6.50;6.70;;;;;;4995429;28;20177;-71
2023/11/12 08:59:40;;;;;;;6.20;4.30;;;6.40;7.50;;;;;;4995161;28;20466;-70
2023/11/12 09:02:09;;;;;;;7.30;3.60;;;6.50;8.20;;;;;;4994841;28;20243;-70
2023/11/12 09:04:34;;;;;;;4.37;3.17;;;6.60;7.80;;;;;;4995100;28;20215;-71
2023/11/12 09:07:01;;;;;;;5.87;4.37;;;6.60;7.00;;;;;;4995127;28;20416;-71
2023/11/12 09:09:27;;;;;;;4.70;3.40;;;6.70;7.20;;;;;;4995151;28;20200;-70
2023/11/12 09:11:52;;;;;;;8.67;3.97;;;6.70;7.40;;;;;;4994821;28;20431;-71
2023/11/12 09:14:19;;;;;;;5.43;4.50;;;6.70;6.50;;;;;;4995094;28;20191;-71
2023/11/12 09:16:46;;;;;;;5.57;3.77;;;6.70;6.50;;;;;;4995149;28;20223;-71
2023/11/12 09:19:12;;;;;;;4.93;3.93;;;6.70;6.20;;;;;;4995021;28;20447;-70
2023/11/12 09:21:38;;;;;;;6.97;4.10;;;6.60;7.10;;;;;;4994598;28;20968;-71
2023/11/12 09:24:04;;;;;;;5.70;4.27;;;6.60;7.50;;;;;;4994687;28;20501;-71
2023/11/12 09:26:30;;;;;;;4.60;3.30;;;6.80;8.40;;;;;;4994631;28;20416;-71
2023/11/12 09:28:55;;;;;;;6.43;4.70;;;7.10;6.30;;;;;;4994581;28;20430;-71
2023/11/12 09:31:21;;;;;;;11.47;4.63;;;7.00;4.80;;;;;;5021942;23;20235;-72
2023/11/12 09:33:48;;;;;;;7.60;5.57;;;6.90;6.60;;;;;;5034276;28;20183;-72
2023/11/12 09:36:15;;;;;;;4.67;4.00;;;6.90;6.20;;;;;;5034329;28;20402;-72
2023/11/12 09:38:41;;;;;;;5.43;4.60;;;7.00;6.50;;;;;;5034272;28;20464;-72
2023/11/12 09:41:09;;;;;;;7.77;5.90;;;6.90;6.30;;;;;;5034220;28;20406;-73
2023/11/12 09:43:35;;;;;;;7.13;5.33;;;6.90;6.40;;;;;;4996539;28;20418;-74
2023/11/12 09:46:06;;;;;;;10.00;5.17;;;6.70;6.50;;;;;;5014601;28;20462;-72
2023/11/12 09:48:42;;;;;;;6.43;4.73;;;7.00;6.50;;;;;;5014318;28;20427;-74
2023/11/12 09:51:11;;;;;;;7.37;5.17;;;7.20;5.40;;;;;;5014248;28;20421;-74
2023/11/12 09:53:41;;;;;;;7.03;5.23;;;7.50;4.40;;;;;;4996537;28;20792;-74
2023/11/12 09:56:11;;;;;;;8.10;5.73;;;7.70;3.70;;;;;;5015370;28;20415;-73
2023/11/12 09:58:41;;;;;;;10.70;7.00;;;7.70;3.30;;;;;;5013573;28;20412;-72
2023/11/12 10:01:08;;;;;;;8.33;6.00;;;7.80;3.30;;;;;;5014190;28;20849;-73
2023/11/12 10:03:35;;;;;;;10.00;6.40;;;7.90;2.20;;;;;;5013957;28;20474;-73
2023/11/12 10:06:04;;;;;;;7.53;5.67;;;7.90;2.10;;;;;;4996270;28;20466;-73
2023/11/12 10:08:31;;;;;;;6.50;5.13;;;7.80;2.90;;;;;;4996233;28;20509;-73
2023/11/12 10:11:14;;;;;;;6.13;5.23;;;7.90;2.40;;;;;;4996443;28;20415;-72
2023/11/12 10:13:40;;;;;;;7.23;4.67;;;7.80;4.90;;;;;;5013679;28;20412;-73
2023/11/12 10:16:26;;;;;;;6.23;5.63;;;7.90;2.80;;;;;;4996314;28;20423;-72
2023/11/12 10:18:52;;;;;;;9.27;4.73;;;7.80;3.30;;;;;;5013761;28;20176;-72
2023/11/12 10:21:19;;;;;;;7.97;5.60;;;7.70;3.20;;;;;;5013855;28;20897;-74
2023/11/12 10:23:45;;;;;;;6.30;4.30;;;7.70;12.30;;;;;;4995671;28;20879;-71
2023/11/12 10:26:12;;;;;;;6.90;4.27;;;7.90;3.50;;;;;;5013681;28;20502;-73
2023/11/12 10:28:38;;;;;;;7.10;5.40;;;7.90;4.60;;;;;;5013430;28;20508;-73
2023/11/12 10:31:04;;;;;;;7.50;5.10;;;7.90;3.90;;;;;;5013273;28;20920;-73
2023/11/12 10:33:29;;;;;;;5.53;4.17;;;8.00;2.40;;;;;;5013178;28;20209;-72
2023/11/12 10:35:55;;;;;;;6.23;5.40;;;7.80;4.80;;;;;;5013443;28;20436;-73
2023/11/12 10:38:22;;;;;;;6.70;4.70;;;7.90;4.70;;;;;;5013569;28;20689;-73
2023/11/12 10:41:05;;;;;;;6.60;5.20;;;7.90;3.50;;;;;;5013311;28;20427;-73
2023/11/12 10:43:31;;;;;;;5.33;4.83;;;7.80;4.50;;;;;;5013757;28;20470;-73
2023/11/12 10:45:59;;;;;;;8.50;5.57;;;7.80;3.80;;;;;;4996224;28;20986;-73
2023/11/12 10:48:39;;;;;;;5.77;4.83;;;7.90;3.70;;;;;;5013401;28;20419;-73
2023/11/12 10:51:10;;;;;;;5.17;3.90;;;8.20;3.90;;;;;;5013135;28;20421;-72
2023/11/12 10:53:40;;;;;;;8.80;5.63;;;8.40;2.50;;;;;;5012956;28;20464;-72
2023/11/12 10:56:06;;;;;;;6.17;4.90;;;8.20;1.80;;;;;;4995316;28;20490;-73
2023/11/12 10:58:33;;;;;;;6.67;4.43;;;8.20;1.80;;;;;;5013283;28;20416;-73
2023/11/12 11:01:01;;;;;;;4.67;4.27;;;8.00;4.00;;;;;;5012915;28;20496;-73
2023/11/12 11:03:28;;;;;;;7.90;4.70;;;8.00;4.50;;;;;;4995168;28;21070;-73
2023/11/12 11:05:56;;;;;;;8.70;4.33;;;8.10;4.40;;;;;;5012795;28;20454;-73
2023/11/12 11:08:23;;;;;;;5.40;3.70;;;8.20;2.50;;;;;;5013007;28;20424;-73
2023/11/12 11:10:49;;;;;;;6.47;5.00;;;8.10;2.30;;;;;;5011865;28;20424;-73
2023/11/12 11:13:15;;;;;;;4.77;3.80;;;8.00;3.80;;;;;;4994668;28;20442;-73
2023/11/12 11:15:52;;;;;;;7.90;4.30;;;8.30;2.30;;;;;;5012787;28;20527;-74
2023/11/12 11:18:32;;;;;;;5.60;4.40;;;8.30;2.30;;;;;;5012793;28;20748;-73
2023/11/12 11:21:12;;;;;;;4.93;3.90;;;8.30;3.10;;;;;;4994937;28;20456;-73
2023/11/12 11:23:45;;;;;;;4.37;3.33;;;8.40;1.50;;;;;;4994875;28;20454;-73
2023/11/12 11:26:32;;;;;;;7.70;4.03;;;8.30;1.90;;;;;;4995151;28;20443;-73
2023/11/12 11:29:04;;;;;;;4.53;3.50;;;8.40;1.80;;;;;;4995247;28;20434;-73
2023/11/12 11:31:31;;;;;;;4.03;3.60;;;8.30;2.50;;;;;;5012526;28;20452;-73
2023/11/12 11:33:58;;;;;;;6.67;3.60;;;8.40;2.90;;;;;;5012653;28;20418;-73
2023/11/12 11:36:25;;;;;;;4.03;2.50;;;8.50;2.20;;;;;;4994998;28;20451;-73
2023/11/12 11:39:07;;;;;;;6.20;3.47;;;8.80;1.40;;;;;;5012942;28;20522;-73
2023/11/12 11:41:58;;;;;;;6.00;3.80;;;9.00;1.00;;;;;;5012601;28;20441;-73
2023/11/12 11:44:37;;;;;;;3.50;2.60;;;9.20;1.00;;;;;;5012501;28;20468;-74
2023/11/12 11:47:09;;;;;;;3.43;3.10;;;9.20;1.00;;;;;;4995465;28;20433;-73
2023/11/12 11:49:35;;;;;;;3.90;3.37;;;9.10;1.00;;;;;;5012836;28;20413;-73
2023/11/12 11:52:01;;;;;;;3.80;2.30;;;9.10;1.00;;;;;;5012699;28;20438;-74
2023/11/12 11:54:28;;;;;;;4.90;2.70;;;9.40;1.00;;;;;;4995286;28;20418;-74
2023/11/12 11:56:57;;;;;;;5.47;2.93;;;9.60;1.00;;;;;;5012622;28;20782;-72
2023/11/12 11:59:24;;;;;;;3.87;3.00;;;9.80;1.00;;;;;;5012884;28;20453;-73
2023/11/12 12:01:52;;;;;;;4.00;3.30;;;9.90;1.00;;;;;;5012452;28;20438;-73
2023/11/12 12:04:18;;;;;;;5.73;3.20;;;10.10;1.00;;;;;;4994765;28;20525;-73
2023/11/12 12:06:46;;;;;;;10.00;3.67;;;10.00;1.00;;;;;;5012547;28;20423;-73
2023/11/12 12:09:17;;;;;;;5.50;3.97;;;9.80;1.00;;;;;;5012551;28;20485;-73
2023/11/12 12:11:46;;;;;;;3.90;3.10;;;9.60;1.00;;;;;;4994974;28;20520;-73
2023/11/12 12:14:15;;;;;;;4.40;2.73;;;9.70;1.00;;;;;;5012480;28;20453;-73
2023/11/12 12:16:42;;;;;;;4.80;2.80;;;9.50;1.00;;;;;;5012437;28;20861;-73
2023/11/12 12:19:13;;;;;;;9.53;4.30;;;9.30;1.00;;;;;;5012403;28;20421;-74
2023/11/12 12:21:47;;;;;;;9.20;4.80;;;9.50;1.00;;;;;;5013827;28;20446;-74
2023/11/12 12:24:13;;;;;;;6.87;4.97;;;9.60;1.00;;;;;;4998815;28;20552;-73
2023/11/12 12:26:39;;;;;;;5.27;3.30;;;9.80;1.00;;;;;;4999467;28;20457;-73
2023/11/12 12:29:22;;;;;;;8.23;4.30;;;9.80;1.00;;;;;;4998708;28;20186;-73
2023/11/12 12:31:49;;;;;;;4.90;2.53;;;9.60;1.00;;;;;;4998325;28;20819;-73
2023/11/12 12:34:16;;;;;;;4.70;1.93;;;9.70;1.00;;;;;;5015899;28;20507;-73
2023/11/12 12:36:55;;;;;;;7.43;2.70;;;9.70;1.00;;;;;;5015940;28;20418;-73
2023/11/12 12:39:23;;;;;;;3.37;1.80;;;9.60;1.00;;;;;;5016292;28;20456;-74
2023/11/12 12:41:54;;;;;;;4.60;2.23;;;9.70;1.00;;;;;;5015513;28;20449;-74
2023/11/12 12:44:23;;;;;;;5.40;2.40;;;9.60;1.00;;;;;;4998337;28;20469;-73
2023/11/12 12:46:52;;;;;;;12.90;3.90;;;9.60;1.00;;;;;;4998519;28;20431;-73
2023/11/12 12:49:34;;;;;;;4.80;2.20;;;9.70;1.00;;;;;;4998285;28;20425;-73
2023/11/12 12:52:01;;;;;;;4.47;2.23;;;9.80;1.00;;;;;;5015440;28;20450;-74
2023/11/12 12:54:31;;;;;;;4.83;2.17;;;9.90;1.00;;;;;;5016414;28;20895;-74
2023/11/12 12:57:03;;;;;;;2.80;1.87;;;9.80;1.00;;;;;;5015838;28;20789;-73
2023/11/12 12:59:34;;;;;;;1.80;1.30;;;9.70;1.00;;;;;;5015680;28;21115;-73